sensor_id;sensor_type;location;lat;lon;timestamp;P1;durP1;ratioP1;P2;durP2;ratioP2
68168;SDS011;54981;50.206;15.978;2023-10-09T00:01:32;15.27;;;13.88;;
68168;SDS011;54981;50.206;15.978;2023-10-09T00:04:03;15.57;;;14.20;;
68168;SDS011;54981;50.206;15.978;2023-10-09T00:06:34;15.90;;;14.40;;
68168;SDS011;54981;50.206;15.978;2023-10-09T00:09:07;14.20;;;12.88;;
68168;SDS011;54981;50.206;15.978;2023-10-09T00:12:00;14.23;;;12.95;;
68168;SDS011;54981;50.206;15.978;2023-10-09T00:14:31;15.15;;;13.63;;
68168;SDS011;54981;50.206;15.978;2023-10-09T00:17:08;15.27;;;13.77;;
68168;SDS011;54981;50.206;15.978;2023-10-09T00:19:42;13.68;;;12.45;;
68168;SDS011;54981;50.206;15.978;2023-10-09T00:22:14;13.90;;;12.50;;
68168;SDS011;54981;50.206;15.978;2023-10-09T00:24:58;14.75;;;13.32;;
68168;SDS011;54981;50.206;15.978;2023-10-09T00:27:41;13.93;;;12.73;;
68168;SDS011;54981;50.206;15.978;2023-10-09T00:30:17;15.00;;;13.60;;
68168;SDS011;54981;50.206;15.978;2023-10-09T00:32:48;14.13;;;12.82;;
68168;SDS011;54981;50.206;15.978;2023-10-09T00:35:37;15.27;;;13.90;;
68168;SDS011;54981;50.206;15.978;2023-10-09T00:38:14;14.95;;;13.68;;
68168;SDS011;54981;50.206;15.978;2023-10-09T00:40:54;13.73;;;12.38;;
68168;SDS011;54981;50.206;15.978;2023-10-09T00:43:34;14.00;;;12.60;;
68168;SDS011;54981;50.206;15.978;2023-10-09T00:46:07;14.55;;;13.25;;
68168;SDS011;54981;50.206;15.978;2023-10-09T00:49:04;14.07;;;12.77;;
68168;SDS011;54981;50.206;15.978;2023-10-09T00:51:41;13.73;;;12.43;;
68168;SDS011;54981;50.206;15.978;2023-10-09T00:54:26;13.93;;;12.63;;
68168;SDS011;54981;50.206;15.978;2023-10-09T00:56:57;14.57;;;13.20;;
68168;SDS011;54981;50.206;15.978;2023-10-09T00:59:36;14.55;;;13.23;;
68168;SDS011;54981;50.206;15.978;2023-10-09T01:02:09;13.90;;;12.60;;
68168;SDS011;54981;50.206;15.978;2023-10-09T01:04:40;15.30;;;12.48;;
68168;SDS011;54981;50.206;15.978;2023-10-09T01:07:13;14.00;;;12.60;;
68168;SDS011;54981;50.206;15.978;2023-10-09T01:09:55;14.25;;;12.85;;
68168;SDS011;54981;50.206;15.978;2023-10-09T01:12:26;13.73;;;12.40;;
68168;SDS011;54981;50.206;15.978;2023-10-09T01:14:58;13.55;;;12.35;;
68168;SDS011;54981;50.206;15.978;2023-10-09T01:17:29;14.48;;;13.05;;
68168;SDS011;54981;50.206;15.978;2023-10-09T01:20:05;12.68;;;11.25;;
68168;SDS011;54981;50.206;15.978;2023-10-09T01:22:46;14.60;;;13.30;;
68168;SDS011;54981;50.206;15.978;2023-10-09T01:27:51;15.27;;;13.88;;
68168;SDS011;54981;50.206;15.978;2023-10-09T01:30:22;13.13;;;11.98;;
68168;SDS011;54981;50.206;15.978;2023-10-09T01:32:53;14.00;;;12.63;;
68168;SDS011;54981;50.206;15.978;2023-10-09T01:35:27;14.00;;;12.65;;
68168;SDS011;54981;50.206;15.978;2023-10-09T01:38:02;13.18;;;11.98;;
68168;SDS011;54981;50.206;15.978;2023-10-09T01:40:40;13.63;;;12.43;;
68168;SDS011;54981;50.206;15.978;2023-10-09T01:43:10;14.07;;;12.77;;
68168;SDS011;54981;50.206;15.978;2023-10-09T01:45:41;13.82;;;12.60;;
68168;SDS011;54981;50.206;15.978;2023-10-09T01:48:16;18.27;;;13.68;;
68168;SDS011;54981;50.206;15.978;2023-10-09T01:50:53;13.90;;;12.65;;
68168;SDS011;54981;50.206;15.978;2023-10-09T01:53:24;13.73;;;12.52;;
68168;SDS011;54981;50.206;15.978;2023-10-09T01:56:08;12.05;;;10.95;;
68168;SDS011;54981;50.206;15.978;2023-10-09T01:58:39;14.38;;;13.07;;
68168;SDS011;54981;50.206;15.978;2023-10-09T02:01:10;13.10;;;11.90;;
68168;SDS011;54981;50.206;15.978;2023-10-09T02:03:41;12.70;;;11.57;;
68168;SDS011;54981;50.206;15.978;2023-10-09T02:06:13;14.18;;;12.93;;
68168;SDS011;54981;50.206;15.978;2023-10-09T02:09:02;13.02;;;11.95;;
68168;SDS011;54981;50.206;15.978;2023-10-09T02:11:36;12.65;;;11.65;;
68168;SDS011;54981;50.206;15.978;2023-10-09T02:14:09;13.73;;;12.43;;
68168;SDS011;54981;50.206;15.978;2023-10-09T02:16:54;12.95;;;11.77;;
68168;SDS011;54981;50.206;15.978;2023-10-09T02:19:36;13.00;;;11.80;;
68168;SDS011;54981;50.206;15.978;2023-10-09T02:22:10;12.50;;;11.25;;
68168;SDS011;54981;50.206;15.978;2023-10-09T02:24:44;11.97;;;10.93;;
68168;SDS011;54981;50.206;15.978;2023-10-09T02:27:18;13.65;;;12.35;;
68168;SDS011;54981;50.206;15.978;2023-10-09T02:30:08;13.52;;;12.27;;
68168;SDS011;54981;50.206;15.978;2023-10-09T02:32:45;13.18;;;11.85;;
68168;SDS011;54981;50.206;15.978;2023-10-09T02:35:19;11.57;;;10.57;;
68168;SDS011;54981;50.206;15.978;2023-10-09T02:38:08;12.43;;;11.32;;
68168;SDS011;54981;50.206;15.978;2023-10-09T02:40:44;12.85;;;11.70;;
68168;SDS011;54981;50.206;15.978;2023-10-09T02:43:34;11.98;;;10.77;;
68168;SDS011;54981;50.206;15.978;2023-10-09T02:46:18;12.52;;;11.50;;
68168;SDS011;54981;50.206;15.978;2023-10-09T02:48:50;13.38;;;12.10;;
68168;SDS011;54981;50.206;15.978;2023-10-09T02:51:21;11.63;;;10.55;;
68168;SDS011;54981;50.206;15.978;2023-10-09T02:54:02;13.32;;;12.05;;
68168;SDS011;54981;50.206;15.978;2023-10-09T02:56:53;13.73;;;11.85;;
68168;SDS011;54981;50.206;15.978;2023-10-09T02:59:36;12.60;;;11.50;;
68168;SDS011;54981;50.206;15.978;2023-10-09T03:02:11;16.85;;;13.15;;
68168;SDS011;54981;50.206;15.978;2023-10-09T03:04:41;12.88;;;11.68;;
68168;SDS011;54981;50.206;15.978;2023-10-09T03:07:12;13.23;;;12.02;;
68168;SDS011;54981;50.206;15.978;2023-10-09T03:09:45;13.55;;;12.38;;
68168;SDS011;54981;50.206;15.978;2023-10-09T03:12:16;12.43;;;11.32;;
68168;SDS011;54981;50.206;15.978;2023-10-09T03:14:48;12.43;;;11.43;;
68168;SDS011;54981;50.206;15.978;2023-10-09T03:17:19;12.02;;;10.93;;
68168;SDS011;54981;50.206;15.978;2023-10-09T03:19:49;12.68;;;11.48;;
68168;SDS011;54981;50.206;15.978;2023-10-09T03:22:19;11.70;;;10.60;;
68168;SDS011;54981;50.206;15.978;2023-10-09T03:24:50;11.88;;;10.77;;
68168;SDS011;54981;50.206;15.978;2023-10-09T03:27:22;12.93;;;11.82;;
68168;SDS011;54981;50.206;15.978;2023-10-09T03:29:53;12.38;;;11.18;;
68168;SDS011;54981;50.206;15.978;2023-10-09T03:32:23;13.35;;;12.15;;
68168;SDS011;54981;50.206;15.978;2023-10-09T03:34:54;13.32;;;12.10;;
68168;SDS011;54981;50.206;15.978;2023-10-09T03:37:25;11.82;;;10.82;;
68168;SDS011;54981;50.206;15.978;2023-10-09T03:40:04;13.02;;;11.88;;
68168;SDS011;54981;50.206;15.978;2023-10-09T03:42:37;12.17;;;11.17;;
68168;SDS011;54981;50.206;15.978;2023-10-09T03:45:08;13.10;;;12.00;;
68168;SDS011;54981;50.206;15.978;2023-10-09T03:47:58;12.75;;;11.50;;
68168;SDS011;54981;50.206;15.978;2023-10-09T03:50:38;11.48;;;10.32;;
68168;SDS011;54981;50.206;15.978;2023-10-09T03:53:13;12.95;;;11.75;;
68168;SDS011;54981;50.206;15.978;2023-10-09T03:55:43;13.23;;;12.18;;
68168;SDS011;54981;50.206;15.978;2023-10-09T03:58:14;13.60;;;12.40;;
68168;SDS011;54981;50.206;15.978;2023-10-09T04:00:49;12.20;;;11.07;;
68168;SDS011;54981;50.206;15.978;2023-10-09T04:03:19;12.95;;;11.82;;
68168;SDS011;54981;50.206;15.978;2023-10-09T04:05:50;13.60;;;12.48;;
68168;SDS011;54981;50.206;15.978;2023-10-09T04:08:23;13.33;;;12.13;;
68168;SDS011;54981;50.206;15.978;2023-10-09T04:10:59;11.93;;;10.93;;
68168;SDS011;54981;50.206;15.978;2023-10-09T04:13:34;13.20;;;12.20;;
68168;SDS011;54981;50.206;15.978;2023-10-09T04:16:04;13.32;;;12.23;;
68168;SDS011;54981;50.206;15.978;2023-10-09T04:18:41;13.45;;;12.10;;
68168;SDS011;54981;50.206;15.978;2023-10-09T04:21:15;12.65;;;11.55;;
68168;SDS011;54981;50.206;15.978;2023-10-09T04:24:04;13.68;;;12.48;;
68168;SDS011;54981;50.206;15.978;2023-10-09T04:26:44;12.88;;;11.77;;
68168;SDS011;54981;50.206;15.978;2023-10-09T04:29:15;12.32;;;11.23;;
68168;SDS011;54981;50.206;15.978;2023-10-09T04:31:56;13.07;;;11.93;;
68168;SDS011;54981;50.206;15.978;2023-10-09T04:34:30;12.95;;;11.75;;
68168;SDS011;54981;50.206;15.978;2023-10-09T04:37:07;12.60;;;11.50;;
68168;SDS011;54981;50.206;15.978;2023-10-09T04:39:43;10.23;;;9.30;;
68168;SDS011;54981;50.206;15.978;2023-10-09T04:42:17;12.32;;;11.15;;
68168;SDS011;54981;50.206;15.978;2023-10-09T04:45:06;11.68;;;10.63;;
68168;SDS011;54981;50.206;15.978;2023-10-09T04:47:37;13.00;;;11.80;;
68168;SDS011;54981;50.206;15.978;2023-10-09T04:50:08;12.02;;;11.02;;
68168;SDS011;54981;50.206;15.978;2023-10-09T04:52:39;11.65;;;10.57;;
68168;SDS011;54981;50.206;15.978;2023-10-09T04:55:10;13.55;;;12.15;;
68168;SDS011;54981;50.206;15.978;2023-10-09T04:57:42;11.80;;;10.77;;
68168;SDS011;54981;50.206;15.978;2023-10-09T05:00:14;12.67;;;11.57;;
68168;SDS011;54981;50.206;15.978;2023-10-09T05:02:56;12.27;;;11.15;;
68168;SDS011;54981;50.206;15.978;2023-10-09T05:05:29;11.27;;;10.18;;
68168;SDS011;54981;50.206;15.978;2023-10-09T05:10:52;11.82;;;10.63;;
68168;SDS011;54981;50.206;15.978;2023-10-09T05:13:29;12.18;;;10.98;;
68168;SDS011;54981;50.206;15.978;2023-10-09T05:16:10;11.75;;;10.55;;
68168;SDS011;54981;50.206;15.978;2023-10-09T05:18:57;11.65;;;10.52;;
68168;SDS011;54981;50.206;15.978;2023-10-09T05:21:30;11.27;;;10.18;;
68168;SDS011;54981;50.206;15.978;2023-10-09T05:24:03;9.95;;;9.05;;
68168;SDS011;54981;50.206;15.978;2023-10-09T05:26:44;11.50;;;10.50;;
68168;SDS011;54981;50.206;15.978;2023-10-09T05:29:21;11.18;;;10.27;;
68168;SDS011;54981;50.206;15.978;2023-10-09T05:32:04;11.20;;;10.20;;
68168;SDS011;54981;50.206;15.978;2023-10-09T05:34:44;11.00;;;9.98;;
68168;SDS011;54981;50.206;15.978;2023-10-09T05:37:31;12.10;;;11.00;;
68168;SDS011;54981;50.206;15.978;2023-10-09T05:40:03;12.15;;;10.93;;
68168;SDS011;54981;50.206;15.978;2023-10-09T05:42:46;13.05;;;11.85;;
68168;SDS011;54981;50.206;15.978;2023-10-09T05:45:27;12.05;;;11.00;;
68168;SDS011;54981;50.206;15.978;2023-10-09T05:48:21;9.93;;;9.02;;
68168;SDS011;54981;50.206;15.978;2023-10-09T05:50:51;10.93;;;9.82;;
68168;SDS011;54981;50.206;15.978;2023-10-09T05:53:53;10.63;;;9.75;;
68168;SDS011;54981;50.206;15.978;2023-10-09T05:56:53;10.02;;;9.20;;
68168;SDS011;54981;50.206;15.978;2023-10-09T05:59:42;10.98;;;9.85;;
68168;SDS011;54981;50.206;15.978;2023-10-09T06:02:30;10.43;;;9.52;;
68168;SDS011;54981;50.206;15.978;2023-10-09T06:05:19;11.38;;;10.35;;
68168;SDS011;54981;50.206;15.978;2023-10-09T06:08:10;11.52;;;10.32;;
68168;SDS011;54981;50.206;15.978;2023-10-09T06:10:42;10.55;;;9.65;;
68168;SDS011;54981;50.206;15.978;2023-10-09T06:13:13;10.57;;;9.68;;
68168;SDS011;54981;50.206;15.978;2023-10-09T06:16:06;10.70;;;9.80;;
68168;SDS011;54981;50.206;15.978;2023-10-09T06:19:00;11.90;;;10.90;;
68168;SDS011;54981;50.206;15.978;2023-10-09T06:21:41;11.68;;;10.68;;
68168;SDS011;54981;50.206;15.978;2023-10-09T06:24:12;11.55;;;10.55;;
68168;SDS011;54981;50.206;15.978;2023-10-09T06:26:45;12.60;;;11.43;;
68168;SDS011;54981;50.206;15.978;2023-10-09T06:29:29;12.40;;;11.18;;
68168;SDS011;54981;50.206;15.978;2023-10-09T06:32:06;12.82;;;11.63;;
68168;SDS011;54981;50.206;15.978;2023-10-09T06:34:50;11.20;;;10.20;;
68168;SDS011;54981;50.206;15.978;2023-10-09T06:37:25;12.65;;;11.40;;
68168;SDS011;54981;50.206;15.978;2023-10-09T06:39:56;12.35;;;11.10;;
68168;SDS011;54981;50.206;15.978;2023-10-09T06:42:27;11.43;;;10.52;;
68168;SDS011;54981;50.206;15.978;2023-10-09T06:47:48;11.60;;;10.63;;
68168;SDS011;54981;50.206;15.978;2023-10-09T06:50:50;11.80;;;10.65;;
68168;SDS011;54981;50.206;15.978;2023-10-09T06:53:26;11.63;;;10.55;;
68168;SDS011;54981;50.206;15.978;2023-10-09T06:56:16;11.63;;;10.48;;
68168;SDS011;54981;50.206;15.978;2023-10-09T06:59:02;11.80;;;10.68;;
68168;SDS011;54981;50.206;15.978;2023-10-09T07:01:45;11.67;;;9.97;;
68168;SDS011;54981;50.206;15.978;2023-10-09T07:04:38;10.95;;;9.85;;
68168;SDS011;54981;50.206;15.978;2023-10-09T07:07:08;11.52;;;10.43;;
68168;SDS011;54981;50.206;15.978;2023-10-09T07:09:44;11.55;;;10.38;;
68168;SDS011;54981;50.206;15.978;2023-10-09T07:12:47;11.88;;;10.88;;
68168;SDS011;54981;50.206;15.978;2023-10-09T07:15:24;10.70;;;9.80;;
68168;SDS011;54981;50.206;15.978;2023-10-09T07:18:15;11.57;;;10.55;;
68168;SDS011;54981;50.206;15.978;2023-10-09T07:20:53;11.35;;;10.35;;
68168;SDS011;54981;50.206;15.978;2023-10-09T07:23:29;11.80;;;10.75;;
68168;SDS011;54981;50.206;15.978;2023-10-09T07:26:03;11.95;;;10.85;;
68168;SDS011;54981;50.206;15.978;2023-10-09T07:28:48;12.00;;;10.90;;
68168;SDS011;54981;50.206;15.978;2023-10-09T07:31:19;12.50;;;11.32;;
68168;SDS011;54981;50.206;15.978;2023-10-09T07:33:57;11.18;;;10.20;;
68168;SDS011;54981;50.206;15.978;2023-10-09T07:36:27;11.68;;;10.57;;
68168;SDS011;54981;50.206;15.978;2023-10-09T07:39:18;12.07;;;11.07;;
68168;SDS011;54981;50.206;15.978;2023-10-09T07:41:52;11.57;;;10.57;;
68168;SDS011;54981;50.206;15.978;2023-10-09T07:44:26;11.27;;;10.25;;
68168;SDS011;54981;50.206;15.978;2023-10-09T07:47:09;11.60;;;10.60;;
68168;SDS011;54981;50.206;15.978;2023-10-09T07:50:06;12.23;;;11.13;;
68168;SDS011;54981;50.206;15.978;2023-10-09T07:52:41;12.15;;;11.02;;
68168;SDS011;54981;50.206;15.978;2023-10-09T07:55:15;12.85;;;11.73;;
68168;SDS011;54981;50.206;15.978;2023-10-09T07:57:56;12.63;;;11.52;;
68168;SDS011;54981;50.206;15.978;2023-10-09T08:00:26;11.65;;;10.55;;
68168;SDS011;54981;50.206;15.978;2023-10-09T08:03:06;12.38;;;11.15;;
68168;SDS011;54981;50.206;15.978;2023-10-09T08:05:53;12.77;;;11.50;;
68168;SDS011;54981;50.206;15.978;2023-10-09T08:08:36;12.77;;;11.68;;
68168;SDS011;54981;50.206;15.978;2023-10-09T08:11:10;13.07;;;11.73;;
68168;SDS011;54981;50.206;15.978;2023-10-09T08:14:00;12.95;;;11.75;;
68168;SDS011;54981;50.206;15.978;2023-10-09T08:16:33;12.73;;;11.52;;
68168;SDS011;54981;50.206;15.978;2023-10-09T08:19:06;12.43;;;11.32;;
68168;SDS011;54981;50.206;15.978;2023-10-09T08:21:59;12.60;;;11.40;;
68168;SDS011;54981;50.206;15.978;2023-10-09T08:24:48;13.50;;;12.20;;
68168;SDS011;54981;50.206;15.978;2023-10-09T08:27:29;12.18;;;10.98;;
68168;SDS011;54981;50.206;15.978;2023-10-09T08:32:47;13.85;;;12.52;;
68168;SDS011;54981;50.206;15.978;2023-10-09T08:35:36;12.95;;;11.80;;
68168;SDS011;54981;50.206;15.978;2023-10-09T08:38:19;14.00;;;12.63;;
68168;SDS011;54981;50.206;15.978;2023-10-09T08:43:28;14.23;;;12.63;;
68168;SDS011;54981;50.206;15.978;2023-10-09T08:46:02;13.77;;;12.50;;
68168;SDS011;54981;50.206;15.978;2023-10-09T08:48:35;12.13;;;10.95;;
68168;SDS011;54981;50.206;15.978;2023-10-09T08:51:09;12.85;;;11.65;;
68168;SDS011;54981;50.206;15.978;2023-10-09T08:53:40;13.80;;;12.50;;
68168;SDS011;54981;50.206;15.978;2023-10-09T08:56:13;14.80;;;13.45;;
68168;SDS011;54981;50.206;15.978;2023-10-09T08:58:56;13.15;;;11.93;;
68168;SDS011;54981;50.206;15.978;2023-10-09T09:01:28;13.68;;;12.48;;
68168;SDS011;54981;50.206;15.978;2023-10-09T09:04:02;13.98;;;12.80;;
68168;SDS011;54981;50.206;15.978;2023-10-09T09:06:36;14.93;;;13.43;;
68168;SDS011;54981;50.206;15.978;2023-10-09T09:09:11;13.55;;;12.32;;
68168;SDS011;54981;50.206;15.978;2023-10-09T09:11:45;15.30;;;13.95;;
68168;SDS011;54981;50.206;15.978;2023-10-09T09:14:18;14.23;;;12.85;;
68168;SDS011;54981;50.206;15.978;2023-10-09T09:16:49;13.88;;;12.48;;
68168;SDS011;54981;50.206;15.978;2023-10-09T09:19:30;14.65;;;13.25;;
68168;SDS011;54981;50.206;15.978;2023-10-09T09:22:02;13.35;;;12.15;;
68168;SDS011;54981;50.206;15.978;2023-10-09T09:24:56;13.90;;;12.70;;
68168;SDS011;54981;50.206;15.978;2023-10-09T09:27:45;14.07;;;12.80;;
68168;SDS011;54981;50.206;15.978;2023-10-09T09:30:26;15.60;;;14.25;;
68168;SDS011;54981;50.206;15.978;2023-10-09T09:33:22;14.50;;;13.20;;
68168;SDS011;54981;50.206;15.978;2023-10-09T09:36:00;15.70;;;14.30;;
68168;SDS011;54981;50.206;15.978;2023-10-09T09:38:35;15.05;;;13.68;;
68168;SDS011;54981;50.206;15.978;2023-10-09T09:41:18;16.20;;;14.60;;
68168;SDS011;54981;50.206;15.978;2023-10-09T09:43:58;22.33;;;20.05;;
68168;SDS011;54981;50.206;15.978;2023-10-09T09:46:32;17.60;;;15.88;;
68168;SDS011;54981;50.206;15.978;2023-10-09T09:49:04;16.65;;;14.95;;
68168;SDS011;54981;50.206;15.978;2023-10-09T09:51:55;14.70;;;13.20;;
68168;SDS011;54981;50.206;15.978;2023-10-09T09:54:26;16.02;;;14.52;;
68168;SDS011;54981;50.206;15.978;2023-10-09T09:56:58;16.17;;;14.68;;
68168;SDS011;54981;50.206;15.978;2023-10-09T09:59:41;15.75;;;14.35;;
68168;SDS011;54981;50.206;15.978;2023-10-09T10:02:27;15.93;;;14.43;;
68168;SDS011;54981;50.206;15.978;2023-10-09T10:05:04;16.33;;;14.82;;
68168;SDS011;54981;50.206;15.978;2023-10-09T10:07:41;16.90;;;15.35;;
68168;SDS011;54981;50.206;15.978;2023-10-09T10:13:18;17.20;;;15.52;;
68168;SDS011;54981;50.206;15.978;2023-10-09T10:16:11;17.47;;;15.90;;
68168;SDS011;54981;50.206;15.978;2023-10-09T10:18:52;18.00;;;16.40;;
68168;SDS011;54981;50.206;15.978;2023-10-09T10:21:24;17.00;;;15.38;;
68168;SDS011;54981;50.206;15.978;2023-10-09T10:27:17;17.33;;;15.73;;
68168;SDS011;54981;50.206;15.978;2023-10-09T10:35:22;17.02;;;15.20;;
68168;SDS011;54981;50.206;15.978;2023-10-09T10:38:31;16.45;;;14.95;;
68168;SDS011;54981;50.206;15.978;2023-10-09T10:41:22;16.50;;;14.90;;
68168;SDS011;54981;50.206;15.978;2023-10-09T10:43:53;16.13;;;14.60;;
68168;SDS011;54981;50.206;15.978;2023-10-09T10:46:23;17.33;;;15.52;;
68168;SDS011;54981;50.206;15.978;2023-10-09T10:49:00;18.20;;;16.60;;
68168;SDS011;54981;50.206;15.978;2023-10-09T10:51:44;18.75;;;16.95;;
68168;SDS011;54981;50.206;15.978;2023-10-09T10:54:20;17.40;;;15.90;;
68168;SDS011;54981;50.206;15.978;2023-10-09T10:57:12;18.00;;;16.20;;
68168;SDS011;54981;50.206;15.978;2023-10-09T10:59:49;18.10;;;16.42;;
68168;SDS011;54981;50.206;15.978;2023-10-09T11:02:32;17.67;;;16.02;;
68168;SDS011;54981;50.206;15.978;2023-10-09T11:05:07;17.77;;;16.17;;
68168;SDS011;54981;50.206;15.978;2023-10-09T11:07:58;19.52;;;17.58;;
68168;SDS011;54981;50.206;15.978;2023-10-09T11:10:30;19.42;;;17.55;;
68168;SDS011;54981;50.206;15.978;2023-10-09T11:13:01;19.17;;;17.33;;
68168;SDS011;54981;50.206;15.978;2023-10-09T11:15:38;20.00;;;18.10;;
68168;SDS011;54981;50.206;15.978;2023-10-09T11:18:16;19.55;;;17.80;;
68168;SDS011;54981;50.206;15.978;2023-10-09T11:20:50;20.55;;;18.65;;
68168;SDS011;54981;50.206;15.978;2023-10-09T11:23:33;19.90;;;17.92;;
68168;SDS011;54981;50.206;15.978;2023-10-09T11:26:05;18.48;;;16.88;;
68168;SDS011;54981;50.206;15.978;2023-10-09T11:32:00;21.88;;;19.77;;
68168;SDS011;54981;50.206;15.978;2023-10-09T11:34:35;21.80;;;19.65;;
68168;SDS011;54981;50.206;15.978;2023-10-09T11:37:13;21.75;;;19.73;;
68168;SDS011;54981;50.206;15.978;2023-10-09T11:40:01;22.95;;;20.83;;
68168;SDS011;54981;50.206;15.978;2023-10-09T11:42:31;21.80;;;19.80;;
68168;SDS011;54981;50.206;15.978;2023-10-09T11:45:22;23.02;;;20.83;;
68168;SDS011;54981;50.206;15.978;2023-10-09T11:47:55;25.13;;;22.83;;
68168;SDS011;54981;50.206;15.978;2023-10-09T11:50:39;34.65;;;31.25;;
68168;SDS011;54981;50.206;15.978;2023-10-09T11:53:19;27.60;;;24.80;;
68168;SDS011;54981;50.206;15.978;2023-10-09T11:55:53;23.88;;;21.38;;
68168;SDS011;54981;50.206;15.978;2023-10-09T11:58:23;22.15;;;20.05;;
68168;SDS011;54981;50.206;15.978;2023-10-09T12:00:54;23.08;;;21.05;;
68168;SDS011;54981;50.206;15.978;2023-10-09T12:03:35;22.92;;;20.73;;
68168;SDS011;54981;50.206;15.978;2023-10-09T12:06:05;22.90;;;20.88;;
68168;SDS011;54981;50.206;15.978;2023-10-09T12:08:36;22.17;;;20.08;;
68168;SDS011;54981;50.206;15.978;2023-10-09T12:11:07;21.52;;;19.52;;
68168;SDS011;54981;50.206;15.978;2023-10-09T12:13:41;22.05;;;19.95;;
68168;SDS011;54981;50.206;15.978;2023-10-09T12:16:12;22.90;;;20.77;;
68168;SDS011;54981;50.206;15.978;2023-10-09T12:18:45;23.00;;;20.88;;
68168;SDS011;54981;50.206;15.978;2023-10-09T12:21:23;24.08;;;21.92;;
68168;SDS011;54981;50.206;15.978;2023-10-09T12:23:54;23.40;;;21.30;;
68168;SDS011;54981;50.206;15.978;2023-10-09T12:26:27;24.60;;;22.25;;
68168;SDS011;54981;50.206;15.978;2023-10-09T12:28:57;26.13;;;23.67;;
68168;SDS011;54981;50.206;15.978;2023-10-09T12:31:28;26.40;;;23.88;;
68168;SDS011;54981;50.206;15.978;2023-10-09T12:34:03;25.58;;;23.27;;
68168;SDS011;54981;50.206;15.978;2023-10-09T12:36:35;24.80;;;22.50;;
68168;SDS011;54981;50.206;15.978;2023-10-09T12:39:07;23.48;;;21.15;;
68168;SDS011;54981;50.206;15.978;2023-10-09T12:41:38;24.77;;;22.63;;
68168;SDS011;54981;50.206;15.978;2023-10-09T12:44:11;24.60;;;22.43;;
68168;SDS011;54981;50.206;15.978;2023-10-09T12:46:44;25.13;;;22.73;;
68168;SDS011;54981;50.206;15.978;2023-10-09T12:49:24;25.80;;;23.35;;
68168;SDS011;54981;50.206;15.978;2023-10-09T12:51:55;24.70;;;22.52;;
68168;SDS011;54981;50.206;15.978;2023-10-09T12:54:27;25.20;;;22.80;;
68168;SDS011;54981;50.206;15.978;2023-10-09T12:56:58;25.27;;;22.98;;
68168;SDS011;54981;50.206;15.978;2023-10-09T12:59:29;28.15;;;25.58;;
68168;SDS011;54981;50.206;15.978;2023-10-09T13:01:59;25.58;;;23.27;;
68168;SDS011;54981;50.206;15.978;2023-10-09T13:04:29;25.88;;;23.45;;
68168;SDS011;54981;50.206;15.978;2023-10-09T13:07:01;25.35;;;22.98;;
68168;SDS011;54981;50.206;15.978;2023-10-09T13:09:34;24.30;;;22.10;;
68168;SDS011;54981;50.206;15.978;2023-10-09T13:12:05;24.98;;;22.52;;
68168;SDS011;54981;50.206;15.978;2023-10-09T13:14:37;27.25;;;24.73;;
68168;SDS011;54981;50.206;15.978;2023-10-09T13:17:07;26.45;;;24.00;;
68168;SDS011;54981;50.206;15.978;2023-10-09T13:19:41;26.95;;;24.60;;
68168;SDS011;54981;50.206;15.978;2023-10-09T13:22:14;26.85;;;24.25;;
68168;SDS011;54981;50.206;15.978;2023-10-09T13:24:44;26.58;;;24.17;;
68168;SDS011;54981;50.206;15.978;2023-10-09T13:27:18;27.70;;;24.98;;
68168;SDS011;54981;50.206;15.978;2023-10-09T13:29:51;27.37;;;24.77;;
68168;SDS011;54981;50.206;15.978;2023-10-09T13:32:22;25.23;;;22.95;;
68168;SDS011;54981;50.206;15.978;2023-10-09T13:34:52;26.40;;;23.80;;
68168;SDS011;54981;50.206;15.978;2023-10-09T13:37:25;30.55;;;27.85;;
68168;SDS011;54981;50.206;15.978;2023-10-09T13:39:57;31.75;;;28.85;;
68168;SDS011;54981;50.206;15.978;2023-10-09T13:42:27;27.75;;;25.08;;
68168;SDS011;54981;50.206;15.978;2023-10-09T13:44:58;26.38;;;24.02;;
68168;SDS011;54981;50.206;15.978;2023-10-09T13:47:34;26.27;;;23.95;;
68168;SDS011;54981;50.206;15.978;2023-10-09T13:50:07;27.08;;;24.55;;
68168;SDS011;54981;50.206;15.978;2023-10-09T13:52:39;27.52;;;25.13;;
68168;SDS011;54981;50.206;15.978;2023-10-09T13:55:09;26.05;;;23.70;;
68168;SDS011;54981;50.206;15.978;2023-10-09T13:57:46;26.33;;;23.98;;
68168;SDS011;54981;50.206;15.978;2023-10-09T14:00:16;25.02;;;22.77;;
68168;SDS011;54981;50.206;15.978;2023-10-09T14:03:02;24.98;;;22.77;;
68168;SDS011;54981;50.206;15.978;2023-10-09T14:05:42;27.92;;;25.52;;
68168;SDS011;54981;50.206;15.978;2023-10-09T14:08:26;29.52;;;26.92;;
68168;SDS011;54981;50.206;15.978;2023-10-09T14:10:59;30.33;;;27.52;;
68168;SDS011;54981;50.206;15.978;2023-10-09T14:13:30;31.58;;;28.77;;
68168;SDS011;54981;50.206;15.978;2023-10-09T14:16:00;29.30;;;26.60;;
68168;SDS011;54981;50.206;15.978;2023-10-09T14:18:32;35.58;;;32.03;;
68168;SDS011;54981;50.206;15.978;2023-10-09T14:21:03;34.38;;;30.98;;
68168;SDS011;54981;50.206;15.978;2023-10-09T14:23:34;33.53;;;30.30;;
68168;SDS011;54981;50.206;15.978;2023-10-09T14:26:05;29.85;;;27.15;;
68168;SDS011;54981;50.206;15.978;2023-10-09T14:28:36;30.10;;;27.40;;
68168;SDS011;54981;50.206;15.978;2023-10-09T14:31:07;27.63;;;25.02;;
68168;SDS011;54981;50.206;15.978;2023-10-09T14:33:42;27.15;;;24.55;;
68168;SDS011;54981;50.206;15.978;2023-10-09T14:36:18;28.23;;;25.52;;
68168;SDS011;54981;50.206;15.978;2023-10-09T14:38:49;27.63;;;25.08;;
68168;SDS011;54981;50.206;15.978;2023-10-09T14:43:54;30.48;;;27.70;;
68168;SDS011;54981;50.206;15.978;2023-10-09T14:46:24;30.30;;;27.50;;
68168;SDS011;54981;50.206;15.978;2023-10-09T14:48:58;29.45;;;26.65;;
68168;SDS011;54981;50.206;15.978;2023-10-09T14:51:30;29.27;;;26.58;;
68168;SDS011;54981;50.206;15.978;2023-10-09T14:54:01;27.80;;;25.08;;
68168;SDS011;54981;50.206;15.978;2023-10-09T14:56:37;27.75;;;25.15;;
68168;SDS011;54981;50.206;15.978;2023-10-09T14:59:08;29.60;;;26.73;;
68168;SDS011;54981;50.206;15.978;2023-10-09T15:01:41;26.92;;;24.33;;
68168;SDS011;54981;50.206;15.978;2023-10-09T15:04:11;29.67;;;26.90;;
68168;SDS011;54981;50.206;15.978;2023-10-09T15:06:44;26.73;;;24.33;;
68168;SDS011;54981;50.206;15.978;2023-10-09T15:09:18;26.48;;;23.88;;
68168;SDS011;54981;50.206;15.978;2023-10-09T15:11:59;29.10;;;26.40;;
68168;SDS011;54981;50.206;15.978;2023-10-09T15:14:30;28.05;;;25.45;;
68168;SDS011;54981;50.206;15.978;2023-10-09T15:17:01;29.17;;;26.27;;
68168;SDS011;54981;50.206;15.978;2023-10-09T15:19:33;28.00;;;25.30;;
68168;SDS011;54981;50.206;15.978;2023-10-09T15:22:03;27.83;;;25.15;;
68168;SDS011;54981;50.206;15.978;2023-10-09T15:24:39;27.55;;;24.88;;
68168;SDS011;54981;50.206;15.978;2023-10-09T15:27:10;27.92;;;25.25;;
68168;SDS011;54981;50.206;15.978;2023-10-09T15:29:43;28.50;;;25.88;;
68168;SDS011;54981;50.206;15.978;2023-10-09T15:32:15;31.13;;;28.20;;
68168;SDS011;54981;50.206;15.978;2023-10-09T15:34:45;28.33;;;25.40;;